sensor_id;sensor_type;location;lat;lon;timestamp;pressure;altitude;pressure_sealevel;temperature;humidity
6528;BME280;64597;42.664;23.256;2023-01-27T00:01:01;93648.19;;;0.81;71.81
6528;BME280;64597;42.664;23.256;2023-01-27T00:03:27;93745.06;;;1.47;72.21
6528;BME280;64597;42.664;23.256;2023-01-27T00:05:53;93746.06;;;1.46;72.28
6528;BME280;64597;42.664;23.256;2023-01-27T00:08:19;93743.09;;;1.49;72.04
6528;BME280;64597;42.664;23.256;2023-01-27T00:10:44;93740.06;;;1.52;72.40
6528;BME280;64597;42.664;23.256;2023-01-27T00:13:14;93731.47;;;1.38;71.72
6528;BME280;64597;42.664;23.256;2023-01-27T00:15:52;93718.91;;;1.29;71.67
6528;BME280;64597;42.664;23.256;2023-01-27T00:18:18;93728.47;;;1.28;71.45
6528;BME280;64597;42.664;23.256;2023-01-27T00:20:43;93708.88;;;1.13;72.13
6528;BME280;64597;42.664;23.256;2023-01-27T00:23:38;93697.72;;;1.06;72.28
6528;BME280;64597;42.664;23.256;2023-01-27T00:26:21;93707.50;;;1.17;72.13
6528;BME280;64597;42.664;23.256;2023-01-27T00:28:47;93718.47;;;1.19;72.28
6528;BME280;64597;42.664;23.256;2023-01-27T00:31:14;93686.31;;;1.07;72.12
6528;BME280;64597;42.664;23.256;2023-01-27T00:33:59;93708.50;;;1.22;71.97
6528;BME280;64597;42.664;23.256;2023-01-27T00:36:33;93707.28;;;1.12;71.99
6528;BME280;64597;42.664;23.256;2023-01-27T00:38:59;93700.50;;;1.04;72.41
6528;BME280;64597;42.664;23.256;2023-01-27T00:41:24;93696.69;;;1.07;72.41
6528;BME280;64597;42.664;23.256;2023-01-27T00:43:53;93706.09;;;1.21;72.35
6528;BME280;64597;42.664;23.256;2023-01-27T00:46:22;93706.69;;;1.23;72.08
6528;BME280;64597;42.664;23.256;2023-01-27T00:48:48;93715.50;;;1.28;72.61
6528;BME280;64597;42.664;23.256;2023-01-27T00:51:15;93719.09;;;1.34;72.47
6528;BME280;64597;42.664;23.256;2023-01-27T00:53:41;93706.91;;;1.21;72.29
6528;BME280;64597;42.664;23.256;2023-01-27T00:56:07;93712.91;;;1.22;72.34
6528;BME280;64597;42.664;23.256;2023-01-27T00:58:33;93718.47;;;1.19;72.39
6528;BME280;64597;42.664;23.256;2023-01-27T01:01:02;93711.69;;;1.18;72.45
6528;BME280;64597;42.664;23.256;2023-01-27T01:03:30;93713.28;;;1.19;72.83
6528;BME280;64597;42.664;23.256;2023-01-27T01:05:59;93691.91;;;1.04;72.91
6528;BME280;64597;42.664;23.256;2023-01-27T01:08:25;93715.28;;;1.17;72.78
6528;BME280;64597;42.664;23.256;2023-01-27T01:10:51;93714.06;;;1.13;73.17
6528;BME280;64597;42.664;23.256;2023-01-27T01:13:17;93704.09;;;1.03;72.66
6528;BME280;64597;42.664;23.256;2023-01-27T01:15:43;93716.66;;;1.13;72.79
6528;BME280;64597;42.664;23.256;2023-01-27T01:18:10;93713.47;;;1.11;73.05
6528;BME280;64597;42.664;23.256;2023-01-27T01:20:41;93723.69;;;1.12;72.59
6528;BME280;64597;42.664;23.256;2023-01-27T01:23:08;93715.28;;;1.10;72.69
6528;BME280;64597;42.664;23.256;2023-01-27T01:25:34;93718.69;;;1.04;72.81
6528;BME280;64597;42.664;23.256;2023-01-27T01:28:00;93717.69;;;1.12;72.48
6528;BME280;64597;42.664;23.256;2023-01-27T01:30:25;93716.66;;;1.13;72.80
6528;BME280;64597;42.664;23.256;2023-01-27T01:32:55;93726.06;;;1.14;72.81
6528;BME280;64597;42.664;23.256;2023-01-27T01:35:23;93721.28;;;1.17;72.46
6528;BME280;64597;42.664;23.256;2023-01-27T01:37:52;93714.06;;;1.13;72.70
6528;BME280;64597;42.664;23.256;2023-01-27T01:40:19;93725.66;;;1.17;72.44
6528;BME280;64597;42.664;23.256;2023-01-27T01:43:03;93732.47;;;1.18;72.35
6528;BME280;64597;42.664;23.256;2023-01-27T01:51:05;93712.50;;;1.12;72.36
6528;BME280;64597;42.664;23.256;2023-01-27T01:53:39;93715.50;;;1.22;72.54
6528;BME280;64597;42.664;23.256;2023-01-27T01:56:11;93715.06;;;1.25;72.47
6528;BME280;64597;42.664;23.256;2023-01-27T01:58:38;93707.69;;;1.22;72.42
6528;BME280;64597;42.664;23.256;2023-01-27T02:01:05;93709.13;;;1.31;72.19
6528;BME280;64597;42.664;23.256;2023-01-27T02:03:31;93700.13;;;1.33;72.44
6528;BME280;64597;42.664;23.256;2023-01-27T02:05:58;93693.34;;;1.39;72.29
6528;BME280;64597;42.664;23.256;2023-01-27T02:08:29;93686.97;;;1.35;72.12
6528;BME280;64597;42.664;23.256;2023-01-27T02:10:55;93685.56;;;1.39;72.19
6528;BME280;64597;42.664;23.256;2023-01-27T02:13:21;93686.75;;;1.43;71.91
6528;BME280;64597;42.664;23.256;2023-01-27T02:15:47;93674.75;;;1.42;71.96
6528;BME280;64597;42.664;23.256;2023-01-27T02:18:14;93666.75;;;1.43;71.66
6528;BME280;64597;42.664;23.256;2023-01-27T02:20:45;93663.78;;;1.40;71.77
6528;BME280;64597;42.664;23.256;2023-01-27T02:25:54;93656.56;;;1.48;71.80
6528;BME280;64597;42.664;23.256;2023-01-27T02:28:21;93651.00;;;1.45;71.09
6528;BME280;64597;42.664;23.256;2023-01-27T02:30:50;93655.78;;;1.41;71.04
6528;BME280;64597;42.664;23.256;2023-01-27T02:33:15;93661.00;;;1.35;70.95
6528;BME280;64597;42.664;23.256;2023-01-27T02:36:03;93661.00;;;1.28;71.18
6528;BME280;64597;42.664;23.256;2023-01-27T02:38:33;93647.41;;;1.20;70.84
6528;BME280;64597;42.664;23.256;2023-01-27T02:41:24;93632.63;;;1.14;71.47
6528;BME280;64597;42.664;23.256;2023-01-27T02:43:53;93645.00;;;1.25;71.24
6528;BME280;64597;42.664;23.256;2023-01-27T02:46:18;93657.97;;;1.25;71.37
6528;BME280;64597;42.664;23.256;2023-01-27T02:48:44;93657.38;;;1.23;71.58
6528;BME280;64597;42.664;23.256;2023-01-27T02:51:10;93648.63;;;1.04;71.39
6528;BME280;64597;42.664;23.256;2023-01-27T02:53:35;93666.16;;;1.15;72.15
6528;BME280;64597;42.664;23.256;2023-01-27T02:56:01;93664.78;;;1.26;71.63
6528;BME280;64597;42.664;23.256;2023-01-27T02:58:27;93674.56;;;1.24;72.17
6528;BME280;64597;42.664;23.256;2023-01-27T03:00:52;93654.00;;;1.29;71.93
6528;BME280;64597;42.664;23.256;2023-01-27T03:03:18;93658.56;;;1.27;71.65
6528;BME280;64597;42.664;23.256;2023-01-27T03:05:44;93658.97;;;1.24;72.13
6528;BME280;64597;42.664;23.256;2023-01-27T03:08:10;93655.00;;;1.28;72.11
6528;BME280;64597;42.664;23.256;2023-01-27T03:10:35;93651.41;;;1.29;72.11
6528;BME280;64597;42.664;23.256;2023-01-27T03:13:01;93650.41;;;1.30;71.96
6528;BME280;64597;42.664;23.256;2023-01-27T03:15:26;93649.00;;;1.27;71.88
6528;BME280;64597;42.664;23.256;2023-01-27T03:18:10;93613.66;;;1.07;72.10
6528;BME280;64597;42.664;23.256;2023-01-27T03:20:48;93622.25;;;1.14;71.81
6528;BME280;64597;42.664;23.256;2023-01-27T03:23:15;93638.22;;;1.24;72.22
6528;BME280;64597;42.664;23.256;2023-01-27T03:25:42;93624.22;;;1.25;71.93
6528;BME280;64597;42.664;23.256;2023-01-27T03:28:08;93630.63;;;1.29;72.21
6528;BME280;64597;42.664;23.256;2023-01-27T03:30:34;93618.06;;;1.26;72.34
6528;BME280;64597;42.664;23.256;2023-01-27T03:32:59;93617.03;;;1.27;72.45
6528;BME280;64597;42.664;23.256;2023-01-27T03:35:27;93632.22;;;1.30;72.34
6528;BME280;64597;42.664;23.256;2023-01-27T03:37:59;93624.44;;;1.30;72.17
6528;BME280;64597;42.664;23.256;2023-01-27T03:40:44;93613.84;;;1.25;72.31
6528;BME280;64597;42.664;23.256;2023-01-27T03:43:28;93601.88;;;1.24;72.21
6528;BME280;64597;42.664;23.256;2023-01-27T03:46:12;93606.66;;;1.27;72.88
6528;BME280;64597;42.664;23.256;2023-01-27T03:48:47;93597.06;;;1.27;72.63
6528;BME280;64597;42.664;23.256;2023-01-27T03:51:14;93599.06;;;1.25;72.32
6528;BME280;64597;42.664;23.256;2023-01-27T03:53:39;93589.50;;;1.19;72.75
6528;BME280;64597;42.664;23.256;2023-01-27T03:56:05;93505.34;;;0.69;72.49
6528;BME280;64597;42.664;23.256;2023-01-27T03:58:33;93604.25;;;1.32;72.61
6528;BME280;64597;42.664;23.256;2023-01-27T04:01:02;93595.28;;;1.34;72.47
6528;BME280;64597;42.664;23.256;2023-01-27T04:03:31;93588.69;;;1.32;72.63
6528;BME280;64597;42.664;23.256;2023-01-27T04:06:21;93609.06;;;1.35;72.19
6528;BME280;64597;42.664;23.256;2023-01-27T04:09:07;93602.09;;;1.29;72.16
6528;BME280;64597;42.664;23.256;2023-01-27T04:11:33;93620.66;;;1.32;71.92
6528;BME280;64597;42.664;23.256;2023-01-27T04:14:17;93633.84;;;1.31;72.19
6528;BME280;64597;42.664;23.256;2023-01-27T04:16:43;93653.38;;;1.27;72.26
6528;BME280;64597;42.664;23.256;2023-01-27T04:19:10;93657.97;;;1.25;72.28
6528;BME280;64597;42.664;23.256;2023-01-27T04:21:36;93658.19;;;1.30;72.21
6528;BME280;64597;42.664;23.256;2023-01-27T04:24:02;93655.00;;;1.34;72.07
6528;BME280;64597;42.664;23.256;2023-01-27T04:26:28;93665.00;;;1.31;72.08
6528;BME280;64597;42.664;23.256;2023-01-27T04:28:58;93673.38;;;1.33;72.12
6528;BME280;64597;42.664;23.256;2023-01-27T04:31:24;93659.38;;;1.27;72.10
6528;BME280;64597;42.664;23.256;2023-01-27T04:33:50;93676.75;;;1.40;72.06
6528;BME280;64597;42.664;23.256;2023-01-27T04:36:15;93683.56;;;1.41;72.21
6528;BME280;64597;42.664;23.256;2023-01-27T04:38:41;93671.94;;;1.43;72.10
6528;BME280;64597;42.664;23.256;2023-01-27T04:41:07;93668.97;;;1.40;71.93
6528;BME280;64597;42.664;23.256;2023-01-27T04:43:33;93674.16;;;1.40;72.25
6528;BME280;64597;42.664;23.256;2023-01-27T04:45:58;93689.72;;;1.40;72.00
6528;BME280;64597;42.664;23.256;2023-01-27T04:48:24;93672.56;;;1.26;71.82
6528;BME280;64597;42.664;23.256;2023-01-27T04:50:49;93661.78;;;1.29;72.09
6528;BME280;64597;42.664;23.256;2023-01-27T04:53:15;93652.00;;;1.31;72.60
6528;BME280;64597;42.664;23.256;2023-01-27T04:55:42;93697.31;;;1.48;72.51
6528;BME280;64597;42.664;23.256;2023-01-27T04:58:12;93709.53;;;1.41;72.88
6528;BME280;64597;42.664;23.256;2023-01-27T05:00:38;93700.50;;;1.43;72.84
6528;BME280;64597;42.664;23.256;2023-01-27T05:03:03;93675.34;;;1.37;72.83
6528;BME280;64597;42.664;23.256;2023-01-27T05:05:33;93679.75;;;1.37;72.43
6528;BME280;64597;42.664;23.256;2023-01-27T05:08:06;93682.53;;;1.42;73.00
6528;BME280;64597;42.664;23.256;2023-01-27T05:10:32;93674.97;;;1.34;72.84
6528;BME280;64597;42.664;23.256;2023-01-27T05:12:57;93673.75;;;1.36;72.94
6528;BME280;64597;42.664;23.256;2023-01-27T05:15:24;93694.94;;;1.53;72.92
6528;BME280;64597;42.664;23.256;2023-01-27T05:17:49;93682.13;;;1.58;72.77
6528;BME280;64597;42.664;23.256;2023-01-27T05:20:15;93677.34;;;1.55;72.98
6528;BME280;64597;42.664;23.256;2023-01-27T05:22:40;93681.94;;;1.46;73.38
6528;BME280;64597;42.664;23.256;2023-01-27T05:25:07;93675.34;;;1.44;72.97
6528;BME280;64597;42.664;23.256;2023-01-27T05:27:33;93656.41;;;1.30;73.38
6528;BME280;64597;42.664;23.256;2023-01-27T05:29:58;93653.38;;;1.27;73.36
6528;BME280;64597;42.664;23.256;2023-01-27T05:32:24;93674.75;;;1.42;73.28
6528;BME280;64597;42.664;23.256;2023-01-27T05:34:49;93665.38;;;1.41;73.36
6528;BME280;64597;42.664;23.256;2023-01-27T05:37:15;93655.78;;;1.41;73.66
6528;BME280;64597;42.664;23.256;2023-01-27T05:39:40;93652.19;;;1.42;73.47
6528;BME280;64597;42.664;23.256;2023-01-27T05:42:06;93630.00;;;1.27;73.87
6528;BME280;64597;42.664;23.256;2023-01-27T05:44:31;93656.56;;;1.42;73.58
6528;BME280;64597;42.664;23.256;2023-01-27T05:46:57;93663.97;;;1.45;73.60
6528;BME280;64597;42.664;23.256;2023-01-27T05:49:22;93650.19;;;1.44;73.29
6528;BME280;64597;42.664;23.256;2023-01-27T05:51:48;93655.38;;;1.51;73.56
6528;BME280;64597;42.664;23.256;2023-01-27T05:54:13;93654.16;;;1.53;73.47
6528;BME280;64597;42.664;23.256;2023-01-27T05:56:39;93670.97;;;1.51;72.98
6528;BME280;64597;42.664;23.256;2023-01-27T05:59:04;93671.56;;;1.53;73.20
6528;BME280;64597;42.664;23.256;2023-01-27T06:01:31;93677.34;;;1.55;73.12
6528;BME280;64597;42.664;23.256;2023-01-27T06:03:58;93678.53;;;1.59;73.17
6528;BME280;64597;42.664;23.256;2023-01-27T06:06:25;93654.56;;;1.44;73.10
6528;BME280;64597;42.664;23.256;2023-01-27T06:08:51;93673.34;;;1.59;73.46
6528;BME280;64597;42.664;23.256;2023-01-27T06:11:17;93680.94;;;1.60;72.79
6528;BME280;64597;42.664;23.256;2023-01-27T06:13:44;93673.94;;;1.61;73.30
6528;BME280;64597;42.664;23.256;2023-01-27T06:16:12;93654.38;;;1.52;73.23
6528;BME280;64597;42.664;23.256;2023-01-27T06:18:39;93671.34;;;1.61;73.07
6528;BME280;64597;42.664;23.256;2023-01-27T06:21:07;93672.94;;;1.62;73.27
6528;BME280;64597;42.664;23.256;2023-01-27T06:23:33;93676.53;;;1.61;72.72
6528;BME280;64597;42.664;23.256;2023-01-27T06:26:08;93676.13;;;1.64;73.12
6528;BME280;64597;42.664;23.256;2023-01-27T06:28:34;93683.31;;;1.68;72.92
6528;BME280;64597;42.664;23.256;2023-01-27T06:31:19;93684.13;;;1.69;72.84
6528;BME280;64597;42.664;23.256;2023-01-27T06:33:46;93687.72;;;1.68;72.66
6528;BME280;64597;42.664;23.256;2023-01-27T06:36:14;93679.31;;;1.66;72.76
6528;BME280;64597;42.664;23.256;2023-01-27T06:38:40;93673.75;;;1.69;72.82
6528;BME280;64597;42.664;23.256;2023-01-27T06:41:06;93679.72;;;1.76;72.52
6528;BME280;64597;42.664;23.256;2023-01-27T06:43:32;93683.31;;;1.75;72.85
6528;BME280;64597;42.664;23.256;2023-01-27T06:45:57;93682.13;;;1.71;72.48
6528;BME280;64597;42.664;23.256;2023-01-27T06:48:24;93683.31;;;1.75;72.57
6528;BME280;64597;42.664;23.256;2023-01-27T06:50:51;93682.50;;;1.81;72.67
6528;BME280;64597;42.664;23.256;2023-01-27T06:53:17;93690.09;;;1.89;72.11
6528;BME280;64597;42.664;23.256;2023-01-27T06:55:42;93672.13;;;1.81;72.04
6528;BME280;64597;42.664;23.256;2023-01-27T06:58:13;93691.28;;;1.93;72.13
6528;BME280;64597;42.664;23.256;2023-01-27T07:00:39;93626.19;;;1.62;72.01
6528;BME280;64597;42.664;23.256;2023-01-27T07:03:05;93683.25;;;2.01;71.80
6528;BME280;64597;42.664;23.256;2023-01-27T07:05:32;93688.06;;;2.04;71.86
6528;BME280;64597;42.664;23.256;2023-01-27T07:07:58;93691.44;;;2.11;71.41
6528;BME280;64597;42.664;23.256;2023-01-27T07:10:23;93701.63;;;2.13;71.42
6528;BME280;64597;42.664;23.256;2023-01-27T07:12:49;93705.22;;;2.18;70.93
6528;BME280;64597;42.664;23.256;2023-01-27T07:15:14;93699.00;;;2.19;70.57
6528;BME280;64597;42.664;23.256;2023-01-27T07:17:40;93706.00;;;2.25;70.59
6528;BME280;64597;42.664;23.256;2023-01-27T07:20:07;93681.63;;;2.20;70.78
6528;BME280;64597;42.664;23.256;2023-01-27T07:22:34;93683.63;;;2.18;69.91
6528;BME280;64597;42.664;23.256;2023-01-27T07:24:59;93700.81;;;2.19;70.06
6528;BME280;64597;42.664;23.256;2023-01-27T07:27:25;93685.44;;;2.11;70.09
6528;BME280;64597;42.664;23.256;2023-01-27T07:29:50;93692.81;;;2.20;69.77
6528;BME280;64597;42.664;23.256;2023-01-27T07:32:16;93669.66;;;2.06;69.70
6528;BME280;64597;42.664;23.256;2023-01-27T07:34:41;93693.22;;;2.17;69.67
6528;BME280;64597;42.664;23.256;2023-01-27T07:37:07;93683.25;;;2.14;69.83
6528;BME280;64597;42.664;23.256;2023-01-27T07:39:32;93693.59;;;2.21;69.86
6528;BME280;64597;42.664;23.256;2023-01-27T07:42:00;93700.81;;;2.19;69.72
6528;BME280;64597;42.664;23.256;2023-01-27T07:44:26;93675.88;;;1.98;69.71
6528;BME280;64597;42.664;23.256;2023-01-27T07:46:52;93681.47;;;2.08;69.71
6528;BME280;64597;42.664;23.256;2023-01-27T07:49:17;93693.22;;;2.17;70.04
6528;BME280;64597;42.664;23.256;2023-01-27T07:51:43;93673.06;;;2.00;70.04
6528;BME280;64597;42.664;23.256;2023-01-27T07:54:11;93701.84;;;2.11;70.34
6528;BME280;64597;42.664;23.256;2023-01-27T07:56:36;93708.81;;;2.11;70.16
6528;BME280;64597;42.664;23.256;2023-01-27T07:59:03;93705.63;;;2.15;70.01
6528;BME280;64597;42.664;23.256;2023-01-27T08:01:29;93705.63;;;2.15;69.77
6528;BME280;64597;42.664;23.256;2023-01-27T08:03:54;93704.03;;;2.14;69.78
6528;BME280;64597;42.664;23.256;2023-01-27T08:06:20;93692.84;;;2.14;69.56
6528;BME280;64597;42.664;23.256;2023-01-27T08:08:45;93681.25;;;2.10;69.97
6528;BME280;64597;42.664;23.256;2023-01-27T08:11:12;93683.63;;;2.11;70.25
6528;BME280;64597;42.664;23.256;2023-01-27T08:13:38;93686.81;;;2.20;69.85
6528;BME280;64597;42.664;23.256;2023-01-27T08:16:10;93692.19;;;2.25;69.77
6528;BME280;64597;42.664;23.256;2023-01-27T08:18:36;93683.78;;;2.29;69.88
6528;BME280;64597;42.664;23.256;2023-01-27T08:21:03;93680.56;;;2.27;69.58
6528;BME280;64597;42.664;23.256;2023-01-27T08:23:31;93680.78;;;2.32;70.11
6528;BME280;64597;42.664;23.256;2023-01-27T08:25:59;93695.94;;;2.35;69.60
6528;BME280;64597;42.664;23.256;2023-01-27T08:28:27;93705.59;;;2.28;69.88
6528;BME280;64597;42.664;23.256;2023-01-27T08:30:52;93696.19;;;2.21;69.55
6528;BME280;64597;42.664;23.256;2023-01-27T08:33:20;93708.59;;;2.25;69.83
6528;BME280;64597;42.664;23.256;2023-01-27T08:35:45;93703.22;;;2.27;70.17
6528;BME280;64597;42.664;23.256;2023-01-27T08:38:16;93710.00;;;2.28;70.15
6528;BME280;64597;42.664;23.256;2023-01-27T08:40:43;93692.22;;;2.18;69.93
6528;BME280;64597;42.664;23.256;2023-01-27T08:43:09;93702.03;;;2.16;69.75
6528;BME280;64597;42.664;23.256;2023-01-27T08:45:35;93704.03;;;2.14;70.35
6528;BME280;64597;42.664;23.256;2023-01-27T08:48:02;93706.59;;;2.27;70.28
6528;BME280;64597;42.664;23.256;2023-01-27T08:50:28;93714.38;;;2.27;70.05
6528;BME280;64597;42.664;23.256;2023-01-27T08:52:56;93708.00;;;2.23;70.17
6528;BME280;64597;42.664;23.256;2023-01-27T08:55:31;93715.63;;;2.18;69.86
6528;BME280;64597;42.664;23.256;2023-01-27T08:57:56;93718.81;;;2.20;69.82
6528;BME280;64597;42.664;23.256;2023-01-27T09:00:22;93715.59;;;2.25;69.73
6528;BME280;64597;42.664;23.256;2023-01-27T09:02:48;93716.38;;;2.25;68.87
6528;BME280;64597;42.664;23.256;2023-01-27T09:05:18;93712.44;;;2.16;69.63
6528;BME280;64597;42.664;23.256;2023-01-27T09:07:45;93716.03;;;2.15;69.54
6528;BME280;64597;42.664;23.256;2023-01-27T09:10:11;93695.66;;;1.99;69.90
6528;BME280;64597;42.664;23.256;2023-01-27T09:12:37;93708.00;;;2.17;69.87
6528;BME280;64597;42.664;23.256;2023-01-27T09:15:02;93686.44;;;2.10;69.51
6528;BME280;64597;42.664;23.256;2023-01-27T09:17:28;93697.22;;;2.13;69.47
6528;BME280;64597;42.664;23.256;2023-01-27T09:19:53;93712.97;;;2.25;69.28
6528;BME280;64597;42.664;23.256;2023-01-27T09:22:19;93714.41;;;2.21;69.44
6528;BME280;64597;42.664;23.256;2023-01-27T09:24:44;93710.00;;;2.21;69.34
6528;BME280;64597;42.664;23.256;2023-01-27T09:27:10;93705.41;;;2.23;69.28
6528;BME280;64597;42.664;23.256;2023-01-27T09:29:35;93698.59;;;2.29;69.13
6528;BME280;64597;42.664;23.256;2023-01-27T09:32:02;93696.38;;;2.32;69.82
6528;BME280;64597;42.664;23.256;2023-01-27T09:34:27;93677.59;;;2.24;69.63
6528;BME280;64597;42.664;23.256;2023-01-27T09:36:59;93689.16;;;2.41;69.85
6528;BME280;64597;42.664;23.256;2023-01-27T09:39:27;93687.31;;;2.41;70.06
6528;BME280;64597;42.664;23.256;2023-01-27T09:44:52;93670.38;;;2.32;68.91
6528;BME280;64597;42.664;23.256;2023-01-27T09:47:36;93683.53;;;2.44;69.01
6528;BME280;64597;42.664;23.256;2023-01-27T10:06:40;93658.44;;;2.56;69.37
6528;BME280;64597;42.664;23.256;2023-01-27T10:28:12;93648.66;;;2.51;69.50
6528;BME280;64597;42.664;23.256;2023-01-27T10:30:46;93646.31;;;2.43;69.50
6528;BME280;64597;42.664;23.256;2023-01-27T10:33:19;93643.31;;;2.46;69.70
6528;BME280;64597;42.664;23.256;2023-01-27T10:38:24;93641.44;;;2.53;69.93
6528;BME280;64597;42.664;23.256;2023-01-27T10:40:59;93641.06;;;2.50;70.01
6528;BME280;64597;42.664;23.256;2023-01-27T10:49:22;93635.72;;;2.45;69.15
6528;BME280;64597;42.664;23.256;2023-01-27T10:52:11;93635.31;;;2.41;69.79
6528;BME280;64597;42.664;23.256;2023-01-27T10:57:41;93651.94;;;2.40;69.88
6528;BME280;64597;42.664;23.256;2023-01-27T11:00:42;93646.72;;;2.40;69.78
6528;BME280;64597;42.664;23.256;2023-01-27T11:03:34;93646.34;;;2.37;70.44
6528;BME280;64597;42.664;23.256;2023-01-27T11:06:10;93639.91;;;2.39;70.32
6528;BME280;64597;42.664;23.256;2023-01-27T11:08:37;93645.56;;;2.36;69.83
6528;BME280;64597;42.664;23.256;2023-01-27T11:11:07;93647.13;;;2.37;70.18
6528;BME280;64597;42.664;23.256;2023-01-27T11:14:01;93633.19;;;2.25;70.19
6528;BME280;64597;42.664;23.256;2023-01-27T11:16:34;93643.78;;;2.30;70.46
6528;BME280;64597;42.664;23.256;2023-01-27T11:19:12;93629.75;;;2.31;70.75
6528;BME280;64597;42.664;23.256;2023-01-27T11:21:39;93620.63;;;2.22;70.78
6528;BME280;64597;42.664;23.256;2023-01-27T11:24:35;93639.78;;;2.28;70.96
6528;BME280;64597;42.664;23.256;2023-01-27T11:30:00;93630.34;;;2.33;70.11
6528;BME280;64597;42.664;23.256;2023-01-27T11:33:03;93626.16;;;2.32;70.08
6528;BME280;64597;42.664;23.256;2023-01-27T11:35:30;93624.16;;;2.34;70.33
6528;BME280;64597;42.664;23.256;2023-01-27T11:37:56;93611.97;;;2.28;69.36
6528;BME280;64597;42.664;23.256;2023-01-27T11:40:28;93616.56;;;2.33;69.71
6528;BME280;64597;42.664;23.256;2023-01-27T11:42:55;93615.38;;;2.29;68.72
6528;BME280;64597;42.664;23.256;2023-01-27T11:45:25;93618.75;;;2.29;69.17
6528;BME280;64597;42.664;23.256;2023-01-27T11:47:56;93615.56;;;2.27;69.42
6528;BME280;64597;42.664;23.256;2023-01-27T11:50:27;93611.78;;;2.30;69.76
6528;BME280;64597;42.664;23.256;2023-01-27T11:53:17;93596.38;;;2.28;69.85
6528;BME280;64597;42.664;23.256;2023-01-27T11:55:54;93604.75;;;2.37;69.63
6528;BME280;64597;42.664;23.256;2023-01-27T11:58:24;93609.94;;;2.37;69.93
6528;BME280;64597;42.664;23.256;2023-01-27T12:00:58;93586.38;;;2.25;69.69
6528;BME280;64597;42.664;23.256;2023-01-27T12:06:13;93582.25;;;2.11;69.18
6528;BME280;64597;42.664;23.256;2023-01-27T12:08:42;93608.38;;;2.23;68.91
6528;BME280;64597;42.664;23.256;2023-01-27T12:11:27;93611.63;;;2.18;68.77
6528;BME280;64597;42.664;23.256;2023-01-27T12:13:58;93612.47;;;2.12;69.38
6528;BME280;64597;42.664;23.256;2023-01-27T12:16:41;93612.03;;;2.15;69.44
6528;BME280;64597;42.664;23.256;2023-01-27T12:19:24;93603.25;;;2.16;69.33
6528;BME280;64597;42.664;23.256;2023-01-27T12:21:55;93608.00;;;2.26;69.41
6528;BME280;64597;42.664;23.256;2023-01-27T12:24:33;93611.97;;;2.28;69.22
6528;BME280;64597;42.664;23.256;2023-01-27T12:27:00;93613.31;;;2.37;68.97
6528;BME280;64597;42.664;23.256;2023-01-27T12:29:40;93612.50;;;2.43;69.76
6528;BME280;64597;42.664;23.256;2023-01-27T12:32:14;93603.09;;;2.49;69.47
6528;BME280;64597;42.664;23.256;2023-01-27T12:34:44;93606.06;;;2.53;69.11
6528;BME280;64597;42.664;23.256;2023-01-27T12:37:21;93608.88;;;2.51;68.58
6528;BME280;64597;42.664;23.256;2023-01-27T12:40:00;93604.03;;;2.55;68.52
6528;BME280;64597;42.664;23.256;2023-01-27T12:42:47;93613.03;;;2.59;68.28
6528;BME280;64597;42.664;23.256;2023-01-27T12:50:54;93610.94;;;2.74;69.37
6528;BME280;64597;42.664;23.256;2023-01-27T12:53:25;93609.88;;;2.81;69.26
6528;BME280;64597;42.664;23.256;2023-01-27T13:01:25;93593.63;;;2.86;68.48
6528;BME280;64597;42.664;23.256;2023-01-27T13:03:54;93593.78;;;2.91;67.93
6528;BME280;64597;42.664;23.256;2023-01-27T13:07:02;93603.69;;;3.07;68.06
6528;BME280;64597;42.664;23.256;2023-01-27T13:09:29;93603.09;;;3.05;67.44
6528;BME280;64597;42.664;23.256;2023-01-27T13:12:00;93603.94;;;2.99;67.76
6528;BME280;64597;42.664;23.256;2023-01-27T13:14:33;93600.06;;;2.83;68.38
6528;BME280;64597;42.664;23.256;2023-01-27T13:16:59;93612.00;;;2.91;67.23
6528;BME280;64597;42.664;23.256;2023-01-27T13:21:59;93615.63;;;2.90;67.02
6528;BME280;64597;42.664;23.256;2023-01-27T13:24:35;93613.28;;;2.82;67.30
6528;BME280;64597;42.664;23.256;2023-01-27T13:27:04;93616.06;;;2.80;67.34
6528;BME280;64597;42.664;23.256;2023-01-27T13:29:35;93556.69;;;2.39;68.13
6528;BME280;64597;42.664;23.256;2023-01-27T13:32:08;93618.75;;;2.74;67.55
6528;BME280;64597;42.664;23.256;2023-01-27T13:34:44;93623.56;;;2.70;68.12
6528;BME280;64597;42.664;23.256;2023-01-27T13:37:31;93624.72;;;2.74;68.22
6528;BME280;64597;42.664;23.256;2023-01-27T13:40:13;93629.31;;;2.79;68.44
6528;BME280;64597;42.664;23.256;2023-01-27T13:42:45;93621.69;;;2.84;68.67
6528;BME280;64597;42.664;23.256;2023-01-27T13:48:13;93619.34;;;2.76;68.24
6528;BME280;64597;42.664;23.256;2023-01-27T13:50:45;93588.25;;;2.49;67.78
6528;BME280;64597;42.664;23.256;2023-01-27T13:53:15;93625.03;;;2.60;68.16
6528;BME280;64597;42.664;23.256;2023-01-27T13:58:20;93620.81;;;2.59;68.15
6528;BME280;64597;42.664;23.256;2023-01-27T14:05:47;93626.66;;;2.54;67.81
6528;BME280;64597;42.664;23.256;2023-01-27T14:19:02;93635.06;;;2.49;68.14
6528;BME280;64597;42.664;23.256;2023-01-27T14:21:40;93643.09;;;2.48;67.56
6528;BME280;64597;42.664;23.256;2023-01-27T14:26:51;93629.94;;;2.36;67.38
6528;BME280;64597;42.664;23.256;2023-01-27T14:34:31;93650.41;;;2.26;67.76
6528;BME280;64597;42.664;23.256;2023-01-27T14:40:04;93646.03;;;2.14;67.79
6528;BME280;64597;42.664;23.256;2023-01-27T14:42:41;93664.00;;;2.22;68.47
6528;BME280;64597;42.664;23.256;2023-01-27T14:45:20;93658.44;;;2.18;68.49
6528;BME280;64597;42.664;23.256;2023-01-27T14:48:11;93657.59;;;2.24;68.77
6528;BME280;64597;42.664;23.256;2023-01-27T14:51:10;93639.06;;;2.08;68.73
6528;BME280;64597;42.664;23.256;2023-01-27T14:54:08;93665.94;;;2.84;82.68
6528;BME280;64597;42.664;23.256;2023-01-27T15:02:10;93670.56;;;6.18;81.68
6528;BME280;64597;42.664;23.256;2023-01-27T15:26:17;93697.91;;;3.22;65.84
6528;BME280;64597;42.664;23.256;2023-01-27T15:28:45;93694.81;;;3.07;65.67
6528;BME280;64597;42.664;23.256;2023-01-27T15:36:36;93706.28;;;2.62;66.79
6528;BME280;64597;42.664;23.256;2023-01-27T15:46:50;93708.78;;;2.30;67.42
6528;BME280;64597;42.664;23.256;2023-01-27T15:50:20;93703.81;;;2.16;67.61
6528;BME280;64597;42.664;23.256;2023-01-27T15:54:49;93719.66;;;2.08;68.20
6528;BME280;64597;42.664;23.256;2023-01-27T15:57:25;93716.47;;;1.99;68.40